Nearby METAR Reports

 

YAMB - Amberley, Australia
Distance from station: NW 41km
Updated: 03/10/2022 14:30
Mostly Cloudy
Mostly Cloudy
 Wind from E
Wind: E 15 km/h
Temperature: 22°C
Dew Point: 9°C
Humidity: 44%
Barometer: 1017 hPa
Clouds: Mostly Cloudy
Visibility: 10 km
Cloud details: Mostly Cloudy 2225 m
2022/10/03 04:30 YAMB 030430Z AUTO 09008KT 9999 // BKN073 22/09 Q1017
YBBN - Brisbane Intl Ar, Australia
Distance from station: N 55km
Updated: 03/10/2022 14:30
Few Clouds
Few Clouds
 Wind from SE
Wind: SE 20 km/h
Temperature: 21°C
Dew Point: 12°C
Humidity: 57%
Barometer: 1018 hPa
Clouds: Few Clouds
Visibility: 10 km
Cloud details: Few Clouds 1067 m
2022/10/03 04:30 YBBN 030430Z 13011KT 9999 FEW035 21/12 Q1018
 
YBCG - Coolangatta Aws, Australia
Distance from station: SE 57km
Updated: 03/10/2022 14:30
Partly Cloudy
Partly Cloudy
 Wind from SE
Wind: SE 30 km/h
Temperature: 20°C
Dew Point: 11°C
Humidity: 56%
Barometer: 1019 hPa
Clouds: Partly Cloudy
Visibility: 10 km
Cloud details: Partly Cloudy 2530 m
2022/10/03 04:30 YBCG 030430Z AUTO 13016KT 9999 // SCT083 20/11 Q1019 RF00.0/000.0
YLIS - Lismore Arpt, Australia
Distance from station: SSE 110km
Updated: 03/10/2022 07:23
NOT Current
Partly Cloudy
Partly Cloudy
 Wind from N
Wind: N 9 km/h
Temperature: 12°C
Dew Point: 12°C
Humidity: 100%
Barometer: 1021 hPa
Clouds: Partly Cloudy
Visibility: 10 km
Cloud details: Partly Cloudy 30 m
2022/10/02 21:23 YLIS 022123Z AUTO 36005KT 9999 // SCT001 12/12 Q1021
 
YCAS - Casino Airport, Australia
Distance from station: S 113km
Updated: 30/09/2022 10:23
NOT Current

 Wind from S
Wind: S 28 km/h, Gust: 46 km/h
Temperature: 24°C
Dew Point: 11°C
Humidity: 44%
Barometer: 1017 hPa
2022/09/30 00:23 YCAS 300023Z AUTO 19015G25KT //// // ////// 24/11 Q1017
YBNA - Ballina Byron G., Australia
Distance from station: SSE 119km
Updated: 12/05/2022 10:00
NOT Current
Mostly Cloudy
Mostly Cloudy
 Wind from ENE
Wind: ENE 28 km/h
Temperature: 23°C
Dew Point: 17°C
Humidity: 69%
Barometer: 1020 hPa
Clouds: Mostly Cloudy
Visibility: 10 km
Cloud details: Partly Cloudy 945 m
Mostly Cloudy 1158 m
Mostly Cloudy 1494 m
2022/05/12 00:00 YBNA 120000Z AUTO 07015KT 9999 // SCT031 BKN038 BKN049 23/17 Q1020
 
YBOK - Oakey (army/Civ), Australia
Distance from station: WNW 139km
Updated: 12/05/2022 10:00
NOT Current
Light rain, Overcast
Light rain, Overcast
 Wind from E
Wind: E 20 km/h
Temperature: 19°C
Dew Point: 18°C
Humidity: 94%
Barometer: 1018 hPa
Summary: Light Rain
Clouds: Overcast
Visibility: 3 km
Cloud details: Mostly Cloudy 244 m
Overcast 671 m
2022/05/12 00:00 YBOK 120000Z 09011KT 3000 -RA BKN008 OVC022 19/18 Q1018